createdAt,value
2017-03-21T00:00:15.300Z,3.15
2017-03-21T00:01:21.157Z,8.62
2017-03-21T00:02:26.959Z,10.07
2017-03-21T00:03:32.686Z,7.13
2017-03-21T00:04:38.593Z,9.85
2017-03-21T00:05:44.415Z,8.85
2017-03-21T00:06:50.259Z,17.57
2017-03-21T00:07:55.981Z,5.62
2017-03-21T00:09:01.832Z,21.15
2017-03-21T00:10:07.639Z,10.83
2017-03-21T00:11:13.502Z,4.45
2017-03-21T00:12:19.463Z,14.32
2017-03-21T00:13:25.258Z,9.63
2017-03-21T00:14:31.252Z,5.73
2017-03-21T00:15:37.305Z,5.08
2017-03-21T00:16:43.253Z,5.50
2017-03-21T00:17:49.182Z,9.02
2017-03-21T00:18:55.117Z,6.05
2017-03-21T00:20:00.948Z,10.28
2017-03-21T00:21:06.695Z,7.03
2017-03-21T00:22:12.480Z,11.57
2017-03-21T00:23:18.487Z,11.25
2017-03-21T00:24:24.966Z,6.17
2017-03-21T00:25:30.746Z,12.58
2017-03-21T00:26:36.424Z,9.82
2017-03-21T00:27:43.921Z,15.42
2017-03-21T00:28:49.753Z,11.22
2017-03-21T00:29:55.593Z,15.52
2017-03-21T00:31:01.336Z,3.80
2017-03-21T00:32:07.180Z,7.37
2017-03-21T00:33:13.213Z,3.78
2017-03-21T00:34:19.125Z,10.32
2017-03-21T00:35:25.141Z,6.88
2017-03-21T00:36:30.984Z,7.15
2017-03-21T00:37:36.836Z,4.78
2017-03-21T00:38:42.607Z,7.85
2017-03-21T00:39:48.512Z,8.25
2017-03-21T00:40:54.958Z,9.05
2017-03-21T00:42:00.860Z,11.62
2017-03-21T00:43:06.733Z,6.97
2017-03-21T00:44:12.499Z,11.12
2017-03-21T00:45:19.152Z,13.05
2017-03-21T00:46:24.904Z,9.45
2017-03-21T00:47:30.640Z,5.23
2017-03-21T00:48:36.586Z,1.83
2017-03-21T00:49:42.570Z,12.28
2017-03-21T00:50:49.184Z,24.83
2017-03-21T00:51:55.055Z,6.65
2017-03-21T00:53:00.818Z,11.55
2017-03-21T00:54:06.684Z,10.42
2017-03-21T00:55:12.536Z,8.30
2017-03-21T00:56:18.361Z,7.68
2017-03-21T00:57:24.832Z,19.07
2017-03-21T00:58:30.797Z,6.60
2017-03-21T00:59:36.732Z,11.95
2017-03-21T01:00:43.232Z,12.87
2017-03-21T01:01:48.942Z,12.27
2017-03-21T01:02:54.847Z,9.35
2017-03-21T01:04:00.696Z,11.47
2017-03-21T01:05:06.710Z,7.63
2017-03-21T01:06:12.425Z,8.05
2017-03-21T01:07:18.362Z,12.37
2017-03-21T01:08:24.089Z,8.28
2017-03-21T01:09:31.104Z,11.97
2017-03-21T01:10:37.037Z,9.65
2017-03-21T01:11:43.649Z,6.65
2017-03-21T01:12:49.545Z,11.62
2017-03-21T01:13:55.394Z,6.82
2017-03-21T01:15:01.421Z,16.98
2017-03-21T01:16:07.311Z,9.75
2017-03-21T01:17:13.084Z,10.90
2017-03-21T01:18:18.813Z,8.27
2017-03-21T01:19:24.818Z,7.08
2017-03-21T01:20:30.828Z,15.73
2017-03-21T01:21:36.592Z,8.10
2017-03-21T01:22:42.298Z,13.87
2017-03-21T01:23:48.309Z,14.03
2017-03-21T01:24:54.025Z,9.73
2017-03-21T01:26:00.554Z,13.87
2017-03-21T01:27:06.288Z,14.17
2017-03-21T01:28:12.244Z,5.18
2017-03-21T01:29:18.045Z,15.55
2017-03-21T01:30:23.791Z,13.12
2017-03-21T01:31:29.538Z,8.12
2017-03-21T01:32:35.447Z,7.40
2017-03-21T01:33:41.264Z,8.23
2017-03-21T01:34:47.165Z,11.02
2017-03-21T01:35:52.953Z,14.65
2017-03-21T01:36:58.772Z,15.50
2017-03-21T01:38:04.664Z,12.42
2017-03-21T01:39:10.565Z,9.97
2017-03-21T01:40:16.280Z,11.00
2017-03-21T01:41:21.928Z,8.98
2017-03-21T01:42:27.578Z,13.82
2017-03-21T01:43:33.229Z,10.03
2017-03-21T01:44:39.132Z,8.15
2017-03-21T01:45:45.016Z,14.03
2017-03-21T01:46:50.864Z,10.72
2017-03-21T01:47:56.696Z,3.97
2017-03-21T01:49:02.373Z,11.28
2017-03-21T01:50:08.135Z,8.00
2017-03-21T01:51:18.828Z,14.35
2017-03-21T01:52:24.607Z,14.43
2017-03-21T01:53:30.429Z,10.13
2017-03-21T01:54:36.274Z,16.08
2017-03-21T01:55:42.008Z,18.18
2017-03-21T01:56:47.959Z,11.27
2017-03-21T01:57:53.872Z,8.63
2017-03-21T01:58:59.599Z,12.53
2017-03-21T02:00:05.409Z,13.43
2017-03-21T02:01:11.319Z,13.97
2017-03-21T02:02:17.791Z,12.93
2017-03-21T02:03:23.553Z,19.65
2017-03-21T02:04:29.497Z,12.58
2017-03-21T02:05:35.329Z,10.73
2017-03-21T02:06:41.317Z,10.05
2017-03-21T02:07:47.232Z,15.23
2017-03-21T02:08:53.859Z,9.27
2017-03-21T02:09:59.529Z,10.12
2017-03-21T02:11:05.337Z,12.45
2017-03-21T02:12:11.235Z,8.20
2017-03-21T02:13:16.994Z,11.55
2017-03-21T02:14:23.623Z,15.58
2017-03-21T02:15:29.539Z,9.35
2017-03-21T02:16:35.272Z,13.08
2017-03-21T02:17:41.160Z,7.02
2017-03-21T02:18:46.896Z,14.00
2017-03-21T02:19:52.878Z,14.92
2017-03-21T02:20:58.887Z,14.30
2017-03-21T02:22:04.822Z,14.65
2017-03-21T02:23:10.532Z,12.33
2017-03-21T02:24:16.337Z,10.67
2017-03-21T02:25:22.083Z,11.77
2017-03-21T02:26:27.927Z,17.37
2017-03-21T02:27:33.748Z,11.52
2017-03-21T02:28:39.541Z,10.07
2017-03-21T02:29:45.548Z,19.20
2017-03-21T02:30:51.451Z,13.08
2017-03-21T02:31:57.160Z,5.82
2017-03-21T02:33:03.015Z,10.50
2017-03-21T02:34:09.733Z,14.38
2017-03-21T02:35:15.511Z,7.67
2017-03-21T02:36:21.269Z,11.37
2017-03-21T02:37:27.232Z,9.88
2017-03-21T02:38:33.195Z,8.37
2017-03-21T02:39:39.927Z,15.38
2017-03-21T02:40:45.718Z,11.60
2017-03-21T02:41:51.584Z,12.18
2017-03-21T02:42:57.457Z,14.97
2017-03-21T02:44:03.969Z,19.33
2017-03-21T02:45:09.756Z,8.57
2017-03-21T02:46:15.700Z,16.70
2017-03-21T02:47:21.532Z,11.92
2017-03-21T02:48:27.421Z,9.05
2017-03-21T02:49:33.363Z,19.03
2017-03-21T02:50:39.427Z,9.98
2017-03-21T02:51:45.327Z,15.25
2017-03-21T02:52:51.134Z,14.50
2017-03-21T02:53:57.562Z,7.32
2017-03-21T02:55:03.577Z,18.42
2017-03-21T02:56:09.334Z,14.70
2017-03-21T02:57:15.079Z,11.97
2017-03-21T02:58:20.847Z,12.02
2017-03-21T02:59:26.576Z,7.17
2017-03-21T03:00:32.315Z,10.05
2017-03-21T03:01:38.232Z,13.93
2017-03-21T03:02:44.279Z,18.03
2017-03-21T03:03:50.270Z,11.57
2017-03-21T03:04:56.141Z,9.95
2017-03-21T03:06:02.060Z,11.15
2017-03-21T03:07:07.888Z,13.50
2017-03-21T03:08:14.627Z,11.03
2017-03-21T03:09:20.338Z,7.42
2017-03-21T03:10:26.167Z,11.28
2017-03-21T03:11:32.006Z,11.88
2017-03-21T03:12:37.728Z,7.98
2017-03-21T03:13:43.524Z,17.17
2017-03-21T03:14:49.589Z,10.42
2017-03-21T03:15:55.603Z,7.53
2017-03-21T03:17:01.457Z,19.33
2017-03-21T03:18:08.229Z,11.75
2017-03-21T03:19:14.092Z,8.43
2017-03-21T03:20:19.983Z,16.85
2017-03-21T03:21:25.686Z,19.93
2017-03-21T03:22:31.645Z,8.92
2017-03-21T03:23:37.692Z,21.37
2017-03-21T03:24:43.442Z,14.45
2017-03-21T03:25:49.392Z,11.07
2017-03-21T03:26:55.260Z,13.33
2017-03-21T03:28:00.923Z,11.33
2017-03-21T03:29:06.801Z,19.80
2017-03-21T03:30:12.685Z,9.63
2017-03-21T03:31:18.576Z,19.45
2017-03-21T03:32:24.428Z,7.27
2017-03-21T03:33:30.256Z,12.73
2017-03-21T03:34:36.952Z,11.35
2017-03-21T03:35:42.786Z,16.67
2017-03-21T03:36:48.711Z,13.55
2017-03-21T03:37:54.687Z,14.80
2017-03-21T03:39:00.682Z,12.17
2017-03-21T03:40:06.438Z,15.28
2017-03-21T03:41:12.417Z,13.07
2017-03-21T03:42:18.193Z,15.65
2017-03-21T03:43:24.700Z,14.22
2017-03-21T03:44:30.676Z,18.17
2017-03-21T03:45:42.480Z,12.20
2017-03-21T03:46:48.565Z,11.33
2017-03-21T03:47:54.301Z,21.35
2017-03-21T03:49:00.323Z,17.63
2017-03-21T03:50:06.211Z,13.98
2017-03-21T03:51:12.152Z,18.25
2017-03-21T03:52:18.046Z,14.10
2017-03-21T03:53:24.088Z,15.83
2017-03-21T03:54:30.082Z,13.30
2017-03-21T03:55:36.739Z,21.13
2017-03-21T03:56:42.587Z,10.32
2017-03-21T03:57:48.368Z,16.50
2017-03-21T03:58:54.424Z,17.08
2017-03-21T04:00:00.191Z,11.58
2017-03-21T04:01:07.016Z,14.15
2017-03-21T04:02:12.836Z,11.37
2017-03-21T04:03:19.474Z,20.53
2017-03-21T04:04:25.384Z,12.83
2017-03-21T04:05:31.156Z,10.55
2017-03-21T04:06:36.937Z,12.40
2017-03-21T04:07:42.939Z,17.27
2017-03-21T04:08:48.756Z,10.88
2017-03-21T04:09:54.815Z,10.18
2017-03-21T04:11:00.572Z,12.58
2017-03-21T04:12:06.436Z,11.70
2017-03-21T04:13:12.188Z,17.92
2017-03-21T04:14:18.222Z,14.40
2017-03-21T04:15:24.215Z,13.37
2017-03-21T04:16:29.983Z,19.28
2017-03-21T04:17:35.841Z,15.13
2017-03-21T04:18:41.616Z,13.42
2017-03-21T04:19:48.143Z,17.70
2017-03-21T04:20:54.644Z,17.47
2017-03-21T04:22:00.594Z,10.75
2017-03-21T04:23:06.286Z,10.50
2017-03-21T04:24:12.298Z,12.92
2017-03-21T04:25:18.084Z,15.00
2017-03-21T04:26:24.100Z,10.15
2017-03-21T04:27:29.980Z,17.10
2017-03-21T04:28:35.829Z,11.13
2017-03-21T04:29:41.612Z,10.98
2017-03-21T04:30:47.376Z,14.65
2017-03-21T04:31:53.411Z,15.57
2017-03-21T04:32:59.202Z,20.05
2017-03-21T04:34:04.940Z,13.92
2017-03-21T04:35:10.703Z,14.85
2017-03-21T04:36:16.777Z,21.55
2017-03-21T04:37:22.727Z,12.88
2017-03-21T04:38:28.434Z,15.00
2017-03-21T04:39:35.089Z,10.70
2017-03-21T04:40:40.846Z,11.52
2017-03-21T04:41:46.595Z,16.07
2017-03-21T04:42:52.605Z,12.82
2017-03-21T04:43:58.404Z,12.27
2017-03-21T04:45:04.280Z,9.90
2017-03-21T04:46:10.813Z,12.80
2017-03-21T04:47:16.765Z,9.23
2017-03-21T04:48:23.539Z,11.30
2017-03-21T04:49:30.032Z,6.63
2017-03-21T04:50:36.723Z,9.32
2017-03-21T04:51:42.477Z,13.48
2017-03-21T04:52:48.317Z,26.03
2017-03-21T04:53:54.861Z,15.43
2017-03-21T04:55:00.869Z,14.53
2017-03-21T04:56:06.769Z,13.25
2017-03-21T04:57:12.632Z,9.32
2017-03-21T04:58:19.384Z,13.35
2017-03-21T04:59:25.909Z,18.37
2017-03-21T05:00:31.679Z,23.28
2017-03-21T05:01:37.639Z,16.40
2017-03-21T05:02:44.289Z,8.15
2017-03-21T05:03:50.342Z,15.55
2017-03-21T05:04:56.129Z,13.20
2017-03-21T05:06:01.993Z,15.27
2017-03-21T05:07:07.808Z,10.08
2017-03-21T05:08:13.613Z,16.28
2017-03-21T05:09:19.599Z,13.63
2017-03-21T05:10:25.288Z,10.60
2017-03-21T05:11:31.841Z,11.90
2017-03-21T05:12:37.631Z,14.30
2017-03-21T05:13:43.589Z,6.93
2017-03-21T05:14:50.044Z,15.70
2017-03-21T05:15:55.867Z,10.18
2017-03-21T05:17:01.604Z,8.40
2017-03-21T05:18:07.401Z,17.98
2017-03-21T05:19:13.245Z,10.90
2017-03-21T05:20:19.355Z,11.43
2017-03-21T05:21:25.339Z,11.80
2017-03-21T05:22:31.101Z,17.50
2017-03-21T05:23:37.641Z,14.77
2017-03-21T05:24:43.639Z,15.12
2017-03-21T05:25:49.410Z,12.45
2017-03-21T05:26:55.392Z,12.12
2017-03-21T05:28:01.072Z,9.42
2017-03-21T05:29:06.917Z,14.57
2017-03-21T05:30:13.432Z,5.95
2017-03-21T05:31:19.175Z,16.67
2017-03-21T05:32:24.952Z,9.38
2017-03-21T05:33:30.769Z,11.28
2017-03-21T05:34:36.624Z,15.95
2017-03-21T05:35:42.451Z,15.72
2017-03-21T05:36:48.445Z,7.87
2017-03-21T05:37:54.443Z,14.98
2017-03-21T05:39:00.499Z,10.82
2017-03-21T05:40:07.122Z,12.50
2017-03-21T05:41:13.653Z,10.88
2017-03-21T05:42:19.385Z,13.37
2017-03-21T05:43:25.088Z,14.58
2017-03-21T05:44:31.642Z,7.02
2017-03-21T05:45:37.620Z,10.43
2017-03-21T05:46:43.422Z,12.42
2017-03-21T05:47:49.268Z,12.98
2017-03-21T05:48:55.284Z,11.12
2017-03-21T05:50:01.855Z,10.78
2017-03-21T05:51:07.673Z,12.03
2017-03-21T05:52:13.666Z,9.97
2017-03-21T05:53:19.458Z,21.97
2017-03-21T05:54:25.989Z,12.82
2017-03-21T05:55:32.140Z,11.50
2017-03-21T05:56:38.125Z,10.75
2017-03-21T05:57:44.028Z,12.93
2017-03-21T05:58:50.528Z,17.13
2017-03-21T05:59:56.384Z,8.77
2017-03-21T06:01:02.215Z,16.28
2017-03-21T06:02:08.039Z,16.55
2017-03-21T06:03:13.834Z,9.90
2017-03-21T06:04:19.851Z,9.70
2017-03-21T06:05:25.632Z,9.07
2017-03-21T06:06:31.449Z,11.27
2017-03-21T06:07:38.129Z,12.80
2017-03-21T06:08:44.789Z,16.47
2017-03-21T06:09:50.511Z,20.80
2017-03-21T06:10:56.353Z,14.82
2017-03-21T06:12:02.876Z,12.40
2017-03-21T06:13:08.807Z,12.32
2017-03-21T06:14:14.587Z,15.20
2017-03-21T06:15:20.312Z,7.82
2017-03-21T06:16:26.047Z,19.33
2017-03-21T06:17:31.875Z,13.08
2017-03-21T06:18:38.400Z,24.10
2017-03-21T06:19:44.234Z,17.85
2017-03-21T06:20:50.160Z,18.72
2017-03-21T06:21:56.094Z,20.50
2017-03-21T06:23:01.946Z,22.73
2017-03-21T06:24:07.732Z,16.32
2017-03-21T06:25:14.416Z,15.52
2017-03-21T06:26:20.325Z,23.32
2017-03-21T06:27:26.591Z,9.97
2017-03-21T06:28:32.345Z,15.05
2017-03-21T06:29:38.388Z,15.83
2017-03-21T06:30:44.116Z,16.33
2017-03-21T06:31:50.016Z,12.28
2017-03-21T06:32:55.953Z,10.88
2017-03-21T06:34:01.896Z,23.00
2017-03-21T06:35:07.726Z,21.67
2017-03-21T06:36:13.690Z,22.35
2017-03-21T06:37:19.670Z,19.32
2017-03-21T06:38:25.423Z,13.60
2017-03-21T06:39:32.079Z,14.62
2017-03-21T06:40:37.795Z,17.23
2017-03-21T06:41:43.585Z,18.55
2017-03-21T06:42:49.518Z,23.55
2017-03-21T06:43:55.356Z,17.17
2017-03-21T06:45:01.326Z,19.23
2017-03-21T06:46:07.272Z,15.00
2017-03-21T06:47:13.271Z,25.75
2017-03-21T06:48:19.251Z,20.87
2017-03-21T06:49:25.004Z,16.13
2017-03-21T06:50:30.776Z,17.72
2017-03-21T06:51:36.528Z,18.30
2017-03-21T06:52:42.549Z,15.60
2017-03-21T06:53:48.528Z,14.42
2017-03-21T06:54:54.280Z,14.97
2017-03-21T06:56:00.064Z,20.10
2017-03-21T06:57:05.862Z,15.07
2017-03-21T06:58:11.898Z,13.65
2017-03-21T06:59:17.672Z,16.45
2017-03-21T07:00:23.404Z,16.07
2017-03-21T07:01:29.181Z,23.15
2017-03-21T07:02:34.935Z,15.25
2017-03-21T07:03:41.525Z,21.07
2017-03-21T07:04:47.484Z,18.52
2017-03-21T07:05:54.280Z,19.63
2017-03-21T07:07:00.103Z,19.53
2017-03-21T07:08:05.920Z,13.90
2017-03-21T07:09:11.944Z,17.55
2017-03-21T07:10:17.859Z,20.53
2017-03-21T07:11:23.595Z,15.37
2017-03-21T07:12:30.217Z,17.78
2017-03-21T07:13:36.137Z,13.43
2017-03-21T07:14:41.947Z,16.38
2017-03-21T07:15:47.907Z,14.00
2017-03-21T07:16:53.901Z,13.37
2017-03-21T07:17:59.869Z,18.53
2017-03-21T07:19:05.909Z,12.17
2017-03-21T07:20:11.917Z,20.10
2017-03-21T07:21:18.441Z,16.25
2017-03-21T07:22:24.473Z,16.20
2017-03-21T07:23:30.378Z,13.25
2017-03-21T07:24:36.228Z,15.33
2017-03-21T07:25:42.001Z,14.20
2017-03-21T07:26:47.962Z,9.28
2017-03-21T07:27:53.771Z,16.75
2017-03-21T07:29:00.424Z,15.52
2017-03-21T07:30:07.067Z,13.75
2017-03-21T07:31:13.011Z,15.43
2017-03-21T07:32:18.720Z,12.38
2017-03-21T07:33:24.596Z,11.93
2017-03-21T07:34:30.586Z,18.73
2017-03-21T07:35:36.439Z,10.33
2017-03-21T07:36:42.276Z,19.88
2017-03-21T07:37:48.260Z,16.83
2017-03-21T07:38:54.784Z,13.85
2017-03-21T07:40:00.603Z,13.97
2017-03-21T07:41:06.412Z,16.67
2017-03-21T07:42:12.444Z,18.02
2017-03-21T07:43:18.264Z,14.60
2017-03-21T07:44:24.737Z,14.13
2017-03-21T07:45:30.920Z,13.13
2017-03-21T07:46:36.774Z,16.25
2017-03-21T07:47:42.546Z,15.58
2017-03-21T07:48:48.599Z,18.17
2017-03-21T07:49:54.425Z,13.93
2017-03-21T07:51:01.092Z,14.65
2017-03-21T07:52:07.832Z,16.37
2017-03-21T07:53:13.648Z,10.93
2017-03-21T07:54:19.541Z,18.10
2017-03-21T07:55:26.070Z,15.12
2017-03-21T07:56:32.124Z,12.47
2017-03-21T07:57:37.828Z,17.38
2017-03-21T07:58:43.756Z,11.83
2017-03-21T07:59:50.420Z,14.72
2017-03-21T08:00:56.227Z,11.83
2017-03-21T08:02:02.124Z,16.25
2017-03-21T08:03:07.942Z,16.85
2017-03-21T08:04:13.961Z,13.10
2017-03-21T08:05:19.901Z,14.05
2017-03-21T08:06:26.423Z,12.58
2017-03-21T08:07:32.164Z,13.92
2017-03-21T08:08:38.094Z,11.82
2017-03-21T08:09:43.984Z,11.63
2017-03-21T08:10:49.972Z,10.57
2017-03-21T08:11:55.767Z,15.98
2017-03-21T08:13:01.535Z,11.25
2017-03-21T08:14:08.353Z,10.83
2017-03-21T08:15:14.124Z,14.75
2017-03-21T08:16:19.888Z,16.75
2017-03-21T08:17:25.698Z,12.92
2017-03-21T08:18:31.464Z,11.58
2017-03-21T08:19:37.280Z,11.60
2017-03-21T08:20:43.175Z,9.57
2017-03-21T08:21:48.915Z,8.63
2017-03-21T08:22:54.708Z,9.57
2017-03-21T08:24:01.320Z,9.85
2017-03-21T08:25:07.196Z,11.35
2017-03-21T08:26:13.955Z,9.17
2017-03-21T08:27:19.664Z,11.20
2017-03-21T08:28:26.240Z,11.65
2017-03-21T08:29:32.263Z,9.22
2017-03-21T08:30:38.037Z,9.87
2017-03-21T08:31:43.856Z,9.50
2017-03-21T08:32:49.584Z,9.17
2017-03-21T08:33:55.319Z,12.23
2017-03-21T08:35:01.936Z,12.57
2017-03-21T08:36:07.851Z,7.17
2017-03-21T08:37:13.791Z,7.05
2017-03-21T08:38:19.647Z,9.52
2017-03-21T08:39:25.416Z,6.27
2017-03-21T08:40:31.265Z,9.57
2017-03-21T08:41:37.067Z,11.73
2017-03-21T08:42:43.103Z,9.95
2017-03-21T08:43:48.919Z,10.83
2017-03-21T08:44:54.670Z,5.88
2017-03-21T08:46:00.367Z,5.65
2017-03-21T08:47:06.213Z,8.62
2017-03-21T08:48:12.117Z,6.60
2017-03-21T08:49:18.079Z,11.25
2017-03-21T08:50:23.851Z,9.67
2017-03-21T08:51:29.617Z,9.60
2017-03-21T08:52:35.487Z,10.63
2017-03-21T08:53:42.027Z,10.95
2017-03-21T08:54:47.932Z,9.12
2017-03-21T08:55:53.997Z,7.00
2017-03-21T08:57:00.007Z,12.63
2017-03-21T08:58:05.908Z,7.00
2017-03-21T08:59:11.907Z,7.03
2017-03-21T09:00:18.443Z,7.35
2017-03-21T09:01:24.411Z,9.62
2017-03-21T09:02:30.608Z,8.30
2017-03-21T09:03:36.816Z,8.93
2017-03-21T09:04:43.363Z,9.05
2017-03-21T09:05:49.175Z,13.83
2017-03-21T09:06:54.888Z,9.85
2017-03-21T09:08:00.658Z,6.58
2017-03-21T09:09:06.800Z,6.45
2017-03-21T09:10:13.424Z,4.70
2017-03-21T09:11:19.215Z,8.50
2017-03-21T09:12:25.907Z,10.05
2017-03-21T09:13:31.832Z,7.17
2017-03-21T09:14:37.687Z,9.35
2017-03-21T09:15:43.540Z,7.50
2017-03-21T09:16:49.508Z,4.87
2017-03-21T09:17:55.467Z,9.93
2017-03-21T09:19:01.250Z,8.08
2017-03-21T09:20:08.556Z,11.88
2017-03-21T09:21:14.299Z,5.65
2017-03-21T09:22:19.994Z,7.45
2017-03-21T09:23:25.677Z,8.33
2017-03-21T09:24:31.453Z,8.38
2017-03-21T09:25:37.346Z,12.35
2017-03-21T09:26:43.252Z,13.33
2017-03-21T09:27:49.245Z,6.55
2017-03-21T09:28:55.264Z,6.07
2017-03-21T09:30:00.967Z,10.63
2017-03-21T09:31:06.836Z,8.12
2017-03-21T09:32:13.343Z,6.92
2017-03-21T09:33:19.308Z,10.25
2017-03-21T09:34:25.168Z,7.73
2017-03-21T09:35:30.883Z,7.13
2017-03-21T09:36:36.642Z,7.40
2017-03-21T09:37:42.704Z,8.52
2017-03-21T09:38:48.535Z,8.22
2017-03-21T09:39:54.570Z,11.03
2017-03-21T09:41:00.427Z,8.23
2017-03-21T09:42:06.285Z,7.20
2017-03-21T09:43:12.376Z,6.35
2017-03-21T09:44:18.341Z,10.25
2017-03-21T09:45:24.188Z,6.72
2017-03-21T09:46:30.375Z,7.58
2017-03-21T09:47:36.440Z,9.62
2017-03-21T09:48:42.943Z,6.90
2017-03-21T09:49:48.628Z,8.93
2017-03-21T09:50:54.577Z,8.00
2017-03-21T09:52:00.592Z,9.37
2017-03-21T09:53:06.347Z,9.83
2017-03-21T09:54:12.239Z,5.38
2017-03-21T09:55:18.244Z,5.87
2017-03-21T09:56:24.107Z,7.55
2017-03-21T09:58:22.309Z,10.55
2017-03-21T09:59:28.072Z,5.22
2017-03-21T10:00:34.016Z,5.47
2017-03-21T10:01:39.807Z,5.83
2017-03-21T10:02:45.705Z,6.10
2017-03-21T10:03:51.480Z,7.57
2017-03-21T10:04:57.242Z,6.88
2017-03-21T10:06:03.197Z,4.90
2017-03-21T10:07:09.034Z,6.68
2017-03-21T10:08:14.749Z,12.70
2017-03-21T10:09:20.540Z,7.07
2017-03-21T10:10:26.356Z,6.52
2017-03-21T10:11:32.151Z,7.05
2017-03-21T10:12:38.088Z,5.80
2017-03-21T10:13:43.812Z,7.35
2017-03-21T10:14:50.359Z,13.00
2017-03-21T10:15:57.483Z,4.40
2017-03-21T10:17:03.508Z,4.20
2017-03-21T10:18:09.399Z,9.05
2017-03-21T10:19:15.284Z,6.23
2017-03-21T10:20:21.964Z,8.33
2017-03-21T10:21:27.953Z,10.20
2017-03-21T10:22:33.960Z,6.35
2017-03-21T10:23:39.979Z,7.78
2017-03-21T10:24:45.855Z,6.70
2017-03-21T10:25:51.724Z,10.38
2017-03-21T10:26:57.460Z,11.83
2017-03-21T10:28:03.239Z,9.28
2017-03-21T10:29:09.829Z,9.02
2017-03-21T10:30:15.520Z,7.12
2017-03-21T10:31:21.352Z,5.77
2017-03-21T10:32:27.292Z,8.18
2017-03-21T10:33:33.808Z,9.18
2017-03-21T10:34:40.256Z,10.90
2017-03-21T10:35:46.697Z,9.72
2017-03-21T10:36:52.520Z,10.33
2017-03-21T10:37:58.275Z,6.95
2017-03-21T10:39:04.804Z,5.72
2017-03-21T10:40:10.603Z,8.78
2017-03-21T10:41:16.503Z,10.45
2017-03-21T10:42:22.272Z,7.70
2017-03-21T10:43:28.261Z,11.87
2017-03-21T10:44:34.283Z,10.15
2017-03-21T10:45:40.295Z,6.28
2017-03-21T10:46:46.125Z,7.50
2017-03-21T10:47:52.156Z,9.32
2017-03-21T10:48:58.984Z,7.77
2017-03-21T10:50:04.933Z,7.85
2017-03-21T10:51:10.743Z,9.35
2017-03-21T10:52:17.321Z,13.50
2017-03-21T10:53:23.080Z,8.27
2017-03-21T10:54:29.048Z,7.82
2017-03-21T10:55:34.763Z,6.55
2017-03-21T10:56:41.283Z,13.42
2017-03-21T10:57:47.022Z,15.55
2017-03-21T10:58:52.856Z,10.53
2017-03-21T10:59:58.755Z,5.82
2017-03-21T11:01:04.684Z,8.38
2017-03-21T11:02:10.685Z,14.82
2017-03-21T11:03:16.552Z,10.85
2017-03-21T11:04:22.357Z,13.27
2017-03-21T11:05:28.141Z,8.73
2017-03-21T11:06:34.099Z,15.47
2017-03-21T11:07:40.039Z,12.80
2017-03-21T11:08:45.888Z,8.47
2017-03-21T11:09:51.707Z,8.02
2017-03-21T11:10:57.451Z,11.78
2017-03-21T11:12:03.315Z,8.83
2017-03-21T11:13:09.151Z,12.20
2017-03-21T11:14:14.965Z,12.23
2017-03-21T11:15:20.827Z,7.73
2017-03-21T11:16:26.568Z,8.78
2017-03-21T11:17:32.330Z,8.20
2017-03-21T11:18:38.161Z,9.47
2017-03-21T11:19:44.732Z,11.48
2017-03-21T11:20:50.493Z,7.62
2017-03-21T11:21:56.495Z,8.33
2017-03-21T11:23:03.177Z,6.22
2017-03-21T11:24:08.944Z,5.35
2017-03-21T11:25:15.151Z,1.68
2017-03-21T11:26:21.139Z,1.53
2017-03-21T11:27:26.931Z,1.33
2017-03-21T11:28:32.948Z,2.32
2017-03-21T11:29:38.684Z,0.80
2017-03-21T11:30:44.653Z,1.87
2017-03-21T11:31:51.031Z,3.95
2017-03-21T11:32:57.051Z,1.07
2017-03-21T11:34:03.055Z,0.95
2017-03-21T11:35:08.832Z,6.05
2017-03-21T11:36:14.610Z,2.62
2017-03-21T11:37:20.472Z,3.27
2017-03-21T11:38:26.223Z,3.82
2017-03-21T11:39:32.137Z,1.17
2017-03-21T11:40:37.932Z,7.17
2017-03-21T11:41:43.829Z,1.53
2017-03-21T11:42:49.817Z,1.95
2017-03-21T11:43:55.672Z,3.35
2017-03-21T11:45:01.545Z,1.08
2017-03-21T11:46:07.309Z,1.10
2017-03-21T11:47:13.105Z,1.27
2017-03-21T11:48:18.927Z,5.97
2017-03-21T11:49:25.488Z,9.88
2017-03-21T11:50:31.249Z,1.88
2017-03-21T11:51:36.994Z,2.62
2017-03-21T11:52:43.029Z,3.43
2017-03-21T11:53:48.779Z,2.30
2017-03-21T11:54:54.539Z,2.62
2017-03-21T11:56:00.211Z,1.87
2017-03-21T11:57:05.895Z,1.85
2017-03-21T11:58:11.661Z,5.30
2017-03-21T11:59:17.512Z,2.35
2017-03-21T12:00:23.453Z,7.65
2017-03-21T12:01:29.321Z,3.38
2017-03-21T12:02:35.687Z,3.78
2017-03-21T12:03:41.522Z,1.57
2017-03-21T12:04:47.376Z,1.57
2017-03-21T12:05:53.347Z,2.13
2017-03-21T12:06:59.063Z,1.35
2017-03-21T12:08:05.007Z,1.95
2017-03-21T12:09:10.888Z,3.08
2017-03-21T12:10:16.627Z,2.98
2017-03-21T12:11:22.464Z,2.22
2017-03-21T12:12:28.210Z,2.52
2017-03-21T12:13:34.068Z,4.28
2017-03-21T12:14:40.819Z,7.40
2017-03-21T12:15:46.544Z,1.78
2017-03-21T12:16:52.283Z,7.88
2017-03-21T12:17:58.188Z,5.93
2017-03-21T12:19:04.943Z,8.28
2017-03-21T12:20:10.899Z,5.42
2017-03-21T12:21:17.580Z,2.32
2017-03-21T12:22:23.368Z,5.15
2017-03-21T12:23:29.348Z,5.27
2017-03-21T12:24:35.076Z,4.83
2017-03-21T12:25:40.932Z,10.58
2017-03-21T12:26:47.201Z,4.92
2017-03-21T12:27:52.900Z,5.93
2017-03-21T12:28:58.868Z,7.08
2017-03-21T12:30:05.445Z,4.92
2017-03-21T12:31:11.208Z,4.68
2017-03-21T12:32:17.016Z,7.67
2017-03-21T12:33:22.888Z,3.43
2017-03-21T12:34:28.669Z,6.35
2017-03-21T12:35:34.395Z,4.20
2017-03-21T12:36:40.194Z,12.38
2017-03-21T12:37:46.014Z,3.48
2017-03-21T12:38:51.881Z,6.08
2017-03-21T12:39:57.785Z,4.00
2017-03-21T12:41:03.580Z,7.30
2017-03-21T12:42:09.402Z,10.97
2017-03-21T12:43:15.212Z,2.65
2017-03-21T12:44:21.377Z,5.53
2017-03-21T12:45:27.232Z,4.97
2017-03-21T12:46:33.200Z,4.83
2017-03-21T12:47:38.976Z,5.78
2017-03-21T12:48:44.832Z,7.45
2017-03-21T12:49:50.681Z,10.22
2017-03-21T12:50:56.773Z,4.03
2017-03-21T12:52:02.583Z,3.27
2017-03-21T12:53:08.380Z,4.12
2017-03-21T12:54:14.255Z,1.70
2017-03-21T12:55:20.157Z,8.25
2017-03-21T12:56:25.988Z,5.12
2017-03-21T12:57:31.912Z,7.07
2017-03-21T12:58:37.831Z,3.45
2017-03-21T12:59:43.687Z,4.18
2017-03-21T13:00:49.533Z,2.83
2017-03-21T13:01:55.493Z,4.82
2017-03-21T13:03:01.356Z,4.05
2017-03-21T13:04:07.356Z,7.17
2017-03-21T13:05:13.320Z,3.73
2017-03-21T13:06:19.199Z,4.88
2017-03-21T13:07:25.206Z,9.58
2017-03-21T13:08:30.880Z,2.10
2017-03-21T13:09:36.648Z,4.30
2017-03-21T13:10:42.558Z,7.18
2017-03-21T13:11:48.591Z,10.75
2017-03-21T13:12:54.379Z,6.98
2017-03-21T13:14:00.925Z,2.38
2017-03-21T13:15:06.883Z,11.98
2017-03-21T13:16:12.683Z,11.02
2017-03-21T13:17:19.408Z,11.07
2017-03-21T13:18:25.167Z,2.75
2017-03-21T13:19:31.143Z,7.52
2017-03-21T13:20:36.827Z,3.37
2017-03-21T13:21:42.526Z,3.20
2017-03-21T13:22:48.395Z,7.42
2017-03-21T13:23:54.381Z,8.77
2017-03-21T13:25:00.251Z,4.42
2017-03-21T13:26:06.736Z,2.78
2017-03-21T13:27:12.749Z,4.68
2017-03-21T13:28:18.828Z,5.03
2017-03-21T13:29:24.789Z,7.33
2017-03-21T13:30:30.592Z,8.53
2017-03-21T13:31:36.619Z,3.48
2017-03-21T13:32:42.664Z,12.10
2017-03-21T13:33:48.495Z,4.60
2017-03-21T13:34:54.275Z,6.92
2017-03-21T13:36:00.115Z,1.67
2017-03-21T13:37:06.005Z,6.72
2017-03-21T13:38:11.763Z,3.50
2017-03-21T13:39:17.558Z,2.92
2017-03-21T13:40:23.299Z,2.15
2017-03-21T13:41:29.229Z,4.95
2017-03-21T13:42:35.189Z,2.65
2017-03-21T13:43:40.975Z,1.83
2017-03-21T13:44:47.037Z,2.08
2017-03-21T13:45:52.810Z,4.22
2017-03-21T13:46:58.531Z,4.23
2017-03-21T13:48:04.287Z,5.35
2017-03-21T13:49:10.255Z,6.43
2017-03-21T13:50:16.991Z,6.08
2017-03-21T13:51:23.508Z,6.15
2017-03-21T13:52:29.272Z,1.98
2017-03-21T13:53:35.768Z,6.03
2017-03-21T13:54:42.244Z,2.62
2017-03-21T13:55:48.905Z,3.88
2017-03-21T13:56:54.733Z,2.73
2017-03-21T13:58:01.413Z,3.37
2017-03-21T13:59:07.228Z,2.73
2017-03-21T14:00:12.994Z,2.75
2017-03-21T14:01:18.979Z,6.30
2017-03-21T14:02:24.831Z,7.50
2017-03-21T14:03:30.763Z,2.87
2017-03-21T14:04:36.772Z,8.27
2017-03-21T14:05:42.656Z,4.22
2017-03-21T14:06:48.492Z,2.95
2017-03-21T14:07:54.258Z,1.93
2017-03-21T14:09:00.017Z,2.10
2017-03-21T14:10:05.853Z,3.70
2017-03-21T14:11:11.737Z,3.10
2017-03-21T14:12:17.609Z,5.82
2017-03-21T14:13:23.539Z,2.37
2017-03-21T14:14:30.075Z,3.45
2017-03-21T14:15:35.888Z,1.98
2017-03-21T14:16:41.696Z,3.20
2017-03-21T14:17:47.624Z,2.33
2017-03-21T14:18:53.567Z,1.77
2017-03-21T14:19:59.348Z,3.02
2017-03-21T14:21:05.211Z,1.57
2017-03-21T14:22:11.109Z,3.53
2017-03-21T14:23:17.276Z,3.40